Startpagina
METAR-TAF:

METAR-TAF

Vliegvelden :

Honiara International Airport

Honiara, Guadalcanal, Salomonseilanden

breedte: 09-25S, lengte: 160-03E, hoogte: 8 m

Actueel weer

Dit bericht is 58 minuten geleden gemaakt, om 08:00 UTC
Wind 2 kt uit het oostzuidoosten
Temperatuur 28°C
Vochtigheid 79%
Druk 1011 hPa
Zicht 10 km of meer
Weinig wolken op 1700 ft

METAR: AGGH 240800Z 11002KT 9999 FEW017 28/24 Q1011

Tijdstip: 19:58 (08:58 UTC)

Verwachting

Dit bericht is 3 uur en het 48 minuten geleden gemaakt, om 05:10 UTC
Verwachting geldig van 24 om 06 UTC tot 25 om 06 UTC
Wind 10 kt uit het oostnoordoosten
Zicht: 1009 m
Verspreide wolken op 1800 ft

TAF: AGGH 240510Z 2406/2506 07010KT 9999 SCT018 T 30 28 26 23 Q 1008 1010 1011 1009

Waarnemingen en weersverwachtingen van meer dan 4000 vliegvelden (METAR en TAF).

De beschikbare stations zijn de gele en rode punten op de kaart.

Ga met uw muis naar het station om de naam te zien.

Klik dan om waarnemingen en weersverwachtingen te zien.

kaart wijzigen: klik op de groene knoppen met een zwart kruis om in te zoomen, op de groene knop met een streepje om uit te zoomen of op de groene pijlen voor aangrenzende kaarten.


METAR-TAF: